Time;durP1;ratioP1;P1;durP2;ratioP2;P2;SDS_P1;SDS_P2;PMS_P1;PMS_P2;Temp;Humidity;BMP_temperature;BMP_pressure;BME280_temperature;BME280_humidity;BME280_pressure;Samples;Min_cycle;Max_cycle;Signal;HPM_P1;HPM_P2
2021/05/11 00:02:19;;;;;;;;;;;;;;;10.48;57.56;97293.20;1841274;77;20233;-77
2021/05/11 00:04:56;;;;;;;;;;;;;;;10.46;57.83;97292.02;1820906;79;20214;-78
2021/05/11 00:07:34;;;;;;;;;;;;;;;10.43;57.75;97291.41;1822336;76;20234;-77
2021/05/11 00:10:12;;;;;;;;;;;;;;;10.39;58.49;97287.32;1841542;77;20241;-77
2021/05/11 00:12:48;;;;;;;;;;;;;;;10.36;58.23;97292.78;1823243;79;20218;-77
2021/05/11 00:15:25;;;;;;;;;;;;;;;10.30;58.25;97288.84;1820882;79;20131;-77
2021/05/11 00:18:02;;;;;;;;;;;;;;;10.26;57.91;97290.84;1852237;76;20188;-76
2021/05/11 00:20:42;;;;;;;;;;;;;;;10.22;57.93;97296.00;1851175;76;20219;-76
2021/05/11 00:23:19;;;;;;;;;;;;;;;10.19;58.63;97290.95;1822573;79;20488;-77
2021/05/11 00:25:59;;;;;;;;;;;;;;;10.15;59.36;97289.03;1820173;79;20237;-77
2021/05/11 00:28:35;;;;;;;;;;;;;;;10.10;57.95;97287.24;1846631;77;20202;-79
2021/05/11 00:31:12;;;;;;;;;;;;;;;10.08;58.44;97286.97;1820592;79;20206;-77
2021/05/11 00:33:49;;;;;;;;;;;;;;;10.03;59.35;97285.17;1821466;79;20218;-76
2021/05/11 00:36:27;;;;;;;;;;;;;;;9.97;57.69;97281.20;1813647;79;20216;-79
2021/05/11 00:39:05;;;;;;;;;;;;;;;9.95;55.13;97280.02;1818719;79;20277;-75
2021/05/11 00:41:42;;;;;;;;;;;;;;;9.92;57.67;97284.18;1799258;79;20231;-77
2021/05/11 00:44:24;;;;;;;;;;;;;;;9.90;55.25;97290.03;1844014;77;20237;-78
2021/05/11 00:47:04;;;;;;;;;;;;;;;9.87;59.01;97277.12;1819428;79;20226;-78
2021/05/11 00:49:41;;;;;;;;;;;;;;;9.87;61.13;97275.80;1821106;79;20219;-77
2021/05/11 00:52:18;;;;;;;;;;;;;;;9.85;59.46;97269.80;1796675;79;20501;-77
2021/05/11 00:54:56;;;;;;;;;;;;;;;9.83;59.47;97265.13;1835791;77;20222;-75
2021/05/11 00:57:35;;;;;;;;;;;;;;;9.83;60.05;97265.13;1821887;79;20471;-76
2021/05/11 01:00:12;;;;;;;;;;;;;;;9.81;59.65;97270.52;1821945;79;20195;-76
2021/05/11 01:02:49;;;;;;;;;;;;;;;9.78;57.25;97272.05;1824824;77;20241;-78
2021/05/11 01:05:26;;;;;;;;;;;;;;;9.75;59.13;97272.75;1847088;77;20225;-78
2021/05/11 01:08:02;;;;;;;;;;;;;;;9.71;60.04;97269.52;1813652;79;20118;-77
2021/05/11 01:10:41;;;;;;;;;;;;;;;9.66;61.32;97272.94;1847156;76;20229;-78
2021/05/11 01:13:19;;;;;;;;;;;;;;;9.64;59.03;97273.55;1853930;76;20184;-79
2021/05/11 01:15:55;;;;;;;;;;;;;;;9.60;61.80;97274.72;1853191;76;20228;-77
2021/05/11 01:18:35;;;;;;;;;;;;;;;9.56;61.37;97272.80;1822169;79;20210;-79
2021/05/11 01:29:46;;;;;;;;;;;;;;;9.35;61.71;97272.58;1853828;76;20231;-78
2021/05/11 01:58:55;;;;;;;;;;;;;;;8.96;62.01;97254.27;1829094;76;20240;-76
2021/05/11 02:24:11;;;;;;;;;;;;;;;8.64;63.31;97244.72;1809418;79;20237;-78
2021/05/11 02:26:53;;;;;;;;;;;;;;;8.62;68.45;97238.27;1814081;79;20258;-77
2021/05/11 02:29:33;;;;;;;;;;;;;;;8.59;63.47;97238.47;1836971;77;20237;-77
2021/05/11 02:32:16;;;;;;;;;;;;;;;8.57;64.06;97244.33;1820329;79;20241;-77
2021/05/11 02:34:49;;;;;;;;;;;;;;;8.56;64.05;97242.65;1852536;76;20208;-75
2021/05/11 02:37:28;;;;;;;;;;;;;;;8.53;66.28;97243.71;1845137;77;20226;-74
2021/05/11 02:40:07;;;;;;;;;;;;;;;8.50;65.62;97236.48;1852691;76;20457;-77
2021/05/11 02:42:46;;;;;;;;;;;;;;;8.48;60.41;97233.98;1842303;77;20202;-79
2021/05/11 02:45:22;;;;;;;;;;;;;;;8.46;64.47;97237.14;1850252;76;20199;-77
2021/05/11 02:48:01;;;;;;;;;;;;;;;8.44;59.77;97236.44;1820630;79;20500;-75
2021/05/11 02:50:37;;;;;;;;;;;;;;;8.42;63.30;97239.14;1830624;76;20238;-76
2021/05/11 02:53:14;;;;;;;;;;;;;;;8.40;63.81;97238.41;1840621;77;20229;-75
2021/05/11 02:55:50;;;;;;;;;;;;;;;8.38;64.97;97232.45;1816601;79;20234;-78
2021/05/11 02:58:29;;;;;;;;;;;;;;;8.36;64.96;97231.70;1852622;76;20204;-78
2021/05/11 03:01:08;;;;;;;;;;;;;;;8.35;62.94;97238.38;1849008;76;20236;-78
2021/05/11 03:03:45;;;;;;;;;;;;;;;8.35;64.68;97239.21;1820900;79;20246;-77
2021/05/11 03:06:22;;;;;;;;;;;;;;;8.34;63.22;97233.59;1852640;76;20212;-76
2021/05/11 03:09:05;;;;;;;;;;;;;;;8.33;66.81;97235.84;1858875;77;20237;-76
2021/05/11 03:12:03;;;;;;;;;;;;;;;8.34;64.14;97238.84;1859161;75;20241;-77
2021/05/11 03:15:04;;;;;;;;;;;;;;;8.36;61.40;97239.58;1911263;74;20225;-78
2021/05/11 03:17:42;;;;;;;;;;;;;;;8.38;63.11;97239.01;1823065;79;20269;-76
2021/05/11 03:20:19;;;;;;;;;;;;;;;8.41;63.14;97231.38;1852854;76;20211;-79
2021/05/11 03:22:55;;;;;;;;;;;;;;;8.43;62.86;97236.06;1846968;76;20215;-77
2021/05/11 03:25:32;;;;;;;;;;;;;;;8.44;66.11;97237.27;1820979;79;20214;-78
2021/05/11 03:28:08;;;;;;;;;;;;;;;8.43;62.80;97235.58;1836797;76;20296;-80
2021/05/11 03:30:46;;;;;;;;;;;;;;;8.43;61.26;97229.01;1821370;79;20210;-77
2021/05/11 03:33:22;;;;;;;;;;;;;;;8.42;58.51;97235.70;1846495;77;20273;-78
2021/05/11 03:35:58;;;;;;;;;;;;;;;8.43;62.97;97233.44;1852747;76;20483;-75
2021/05/11 03:38:35;;;;;;;;;;;;;;;8.47;63.92;97230.98;1823411;79;20262;-75
2021/05/11 03:41:14;;;;;;;;;;;;;;;8.52;60.50;97238.54;1841227;77;20221;-76
2021/05/11 03:46:32;;;;;;;;;;;;;;;8.63;67.44;97236.50;1820275;79;20214;-73
2021/05/11 03:49:08;;;;;;;;;;;;;;;8.68;64.69;97234.37;1820223;79;20376;-77
2021/05/11 03:51:44;;;;;;;;;;;;;;;8.73;64.57;97229.62;1826458;77;20230;-76
2021/05/11 03:54:19;;;;;;;;;;;;;;;8.79;65.19;97227.89;1820896;79;20217;-77
2021/05/11 03:56:58;;;;;;;;;;;;;;;8.91;62.56;97230.11;1853348;76;20211;-76
2021/05/11 03:59:52;;;;;;;;;;;;;;;9.33;64.39;97232.38;1821656;79;20214;-75
2021/05/11 04:02:28;;;;;;;;;;;;;;;9.90;62.99;97227.33;1853147;76;20482;-79
2021/05/11 04:05:08;;;;;;;;;;;;;;;10.55;63.16;97221.09;1846072;77;20229;-83
2021/05/11 04:07:43;;;;;;;;;;;;;;;11.26;62.90;97220.73;1845495;77;20250;-79
2021/05/11 04:10:28;;;;;;;;;;;;;;;11.95;61.19;97216.00;1817182;79;20230;-84
2021/05/11 04:18:31;;;;;;;;;;;;;;;14.21;57.03;97211.58;1820098;79;20487;-77
2021/05/11 04:21:26;;;;;;;;;;;;;;;14.83;54.29;97211.13;1848270;76;20489;-82
2021/05/11 04:24:03;;;;;;;;;;;;;;;15.35;53.25;97207.03;1826444;77;20234;-82
2021/05/11 04:26:39;;;;;;;;;;;;;;;15.96;51.33;97203.77;1851817;76;20453;-78
2021/05/11 04:29:35;;;;;;;;;;;;;;;16.66;49.65;97205.50;1797428;79;20258;-76
2021/05/11 04:32:12;;;;;;;;;;;;;;;17.29;48.81;97210.11;1845275;76;20223;-78
2021/05/11 04:34:48;;;;;;;;;;;;;;;17.89;46.50;97206.34;1851646;76;20251;-79
2021/05/11 04:37:24;;;;;;;;;;;;;;;18.44;46.78;97201.78;1851503;76;20234;-75
2021/05/11 04:40:00;;;;;;;;;;;;;;;18.90;44.21;97197.95;1846854;77;20242;-76
2021/05/11 04:42:54;;;;;;;;;;;;;;;19.65;42.53;97207.24;1851677;76;20211;-76
2021/05/11 04:45:33;;;;;;;;;;;;;;;20.16;42.08;97203.19;1824147;77;20268;-76
2021/05/11 04:48:08;;;;;;;;;;;;;;;20.62;39.28;97200.05;1800537;79;20260;-78
2021/05/11 04:50:46;;;;;;;;;;;;;;;21.21;39.63;97209.90;1823194;77;20210;-78
2021/05/11 04:53:25;;;;;;;;;;;;;;;21.71;38.34;97214.07;1849034;76;20282;-75
2021/05/11 04:56:20;;;;;;;;;;;;;;;21.97;38.08;97190.69;1838137;77;20496;-75
2021/05/11 04:59:01;;;;;;;;;;;;;;;22.46;36.39;97201.09;1826505;77;20479;-75
2021/05/11 05:01:42;;;;;;;;;;;;;;;22.84;35.70;97200.37;1850368;76;20225;-76
2021/05/11 05:04:18;;;;;;;;;;;;;;;23.30;34.42;97202.95;1820121;79;20218;-77
2021/05/11 05:07:12;;;;;;;;;;;;;;;23.71;35.61;97204.19;1820071;79;20512;-77
2021/05/11 05:09:48;;;;;;;;;;;;;;;23.78;35.83;97204.20;1819948;79;20225;-76
2021/05/11 05:12:24;;;;;;;;;;;;;;;23.90;38.46;97202.25;1851577;76;20208;-77
2021/05/11 05:15:06;;;;;;;;;;;;;;;24.17;37.98;97199.09;1848772;76;20264;-77
2021/05/11 05:17:42;;;;;;;;;;;;;;;24.43;30.87;97196.87;1851489;76;20222;-79
2021/05/11 05:20:20;;;;;;;;;;;;;;;24.59;35.63;97198.30;1817470;79;20218;-78
2021/05/11 05:22:59;;;;;;;;;;;;;;;24.72;37.64;97193.42;1847071;76;20221;-79
2021/05/11 05:25:35;;;;;;;;;;;;;;;25.08;33.62;97199.33;1826735;76;20526;-76
2021/05/11 05:28:13;;;;;;;;;;;;;;;24.91;34.98;97197.62;1849328;76;20223;-76
2021/05/11 05:30:50;;;;;;;;;;;;;;;24.90;34.67;97195.45;1834342;76;20233;-78
2021/05/11 05:33:32;;;;;;;;;;;;;;;25.08;33.33;97202.02;1797317;79;20506;-79
2021/05/11 05:36:08;;;;;;;;;;;;;;;24.99;34.80;97204.12;1792301;79;20236;-77
2021/05/11 05:38:45;;;;;;;;;;;;;;;24.89;31.85;97205.08;1832570;77;20230;-73
2021/05/11 05:41:25;;;;;;;;;;;;;;;24.24;30.38;97200.41;1839073;77;20245;-74
2021/05/11 05:44:00;;;;;;;;;;;;;;;23.97;32.66;97207.14;1820262;79;20284;-75
2021/05/11 05:46:36;;;;;;;;;;;;;;;23.66;32.14;97181.64;1844406;76;20245;-74
2021/05/11 05:49:12;;;;;;;;;;;;;;;23.42;32.59;97204.03;1800513;77;20231;-73
2021/05/11 05:51:49;;;;;;;;;;;;;;;23.29;33.83;97207.51;1792202;79;20232;-76
2021/05/11 05:54:25;;;;;;;;;;;;;;;22.75;32.96;97203.22;1801668;79;20295;-75
2021/05/11 05:57:01;;;;;;;;;;;;;;;22.73;33.42;97197.73;1809566;79;20269;-81
2021/05/11 05:59:40;;;;;;;;;;;;;;;22.56;34.13;97194.53;1802321;79;20233;-83
2021/05/11 06:02:17;;;;;;;;;;;;;;;22.82;33.74;97194.36;1808748;79;20261;-78
2021/05/11 06:04:52;;;;;;;;;;;;;;;22.41;33.90;97189.27;1850135;76;20227;-79
2021/05/11 06:07:47;;;;;;;;;;;;;;;22.65;34.11;97186.63;1840417;76;20223;-78
2021/05/11 06:10:25;;;;;;;;;;;;;;;23.02;33.62;97192.59;1819379;79;20261;-78
2021/05/11 06:13:09;;;;;;;;;;;;;;;22.52;33.84;97187.88;1850828;76;20255;-74
2021/05/11 06:18:37;;;;;;;;;;;;;;;22.06;34.48;97179.28;1851062;76;20358;-80
2021/05/11 06:21:12;;;;;;;;;;;;;;;21.90;35.82;97174.20;1819356;79;20222;-77
2021/05/11 06:24:08;;;;;;;;;;;;;;;22.28;35.04;97179.24;1911169;74;20233;-75
2021/05/11 06:26:47;;;;;;;;;;;;;;;22.18;34.63;97176.07;1850876;76;20243;-79
2021/05/11 06:29:24;;;;;;;;;;;;;;;22.66;35.32;97172.67;1819559;79;20281;-78
2021/05/11 06:32:03;;;;;;;;;;;;;;;23.09;33.54;97176.50;1850739;76;20243;-77
2021/05/11 06:34:48;;;;;;;;;;;;;;;23.47;34.25;97169.30;1822060;79;20239;-74
2021/05/11 06:37:22;;;;;;;;;;;;;;;23.39;33.01;97162.73;1819418;79;20265;-75
2021/05/11 06:39:59;;;;;;;;;;;;;;;23.26;33.52;97162.19;1851054;76;20247;-79
2021/05/11 06:42:38;;;;;;;;;;;;;;;23.18;34.06;97156.50;1819512;79;20272;-77
2021/05/11 06:53:51;;;;;;;;;;;;;;;22.62;35.17;97162.84;1850962;76;20336;-80
2021/05/11 06:56:28;;;;;;;;;;;;;;;22.96;33.73;97167.03;1819796;79;20253;-76
2021/05/11 06:59:04;;;;;;;;;;;;;;;22.69;34.25;97163.70;1851056;76;20247;-77
2021/05/11 07:01:39;;;;;;;;;;;;;;;22.30;34.31;97158.41;1819443;79;20245;-79
2021/05/11 07:04:17;;;;;;;;;;;;;;;22.18;34.64;97163.47;1851045;76;20512;-77
2021/05/11 07:06:53;;;;;;;;;;;;;;;22.14;36.13;97168.92;1850935;76;20238;-74
2021/05/11 07:15:17;;;;;;;;;;;;;;;22.45;36.71;97161.02;1850995;76;20204;-78
2021/05/11 07:18:08;;;;;;;;;;;;;;;22.65;36.32;97165.64;1819567;79;20230;-78
2021/05/11 07:20:46;;;;;;;;;;;;;;;22.86;36.67;97159.36;1819638;79;20221;-76
2021/05/11 07:23:21;;;;;;;;;;;;;;;23.37;35.74;97153.54;1850954;76;20501;-75
2021/05/11 07:31:26;;;;;;;;;;;;;;;23.61;35.81;97147.28;1819480;79;20135;-78
2021/05/11 07:34:04;;;;;;;;;;;;;;;23.58;35.81;97147.69;1819502;79;20503;-76
2021/05/11 07:36:39;;;;;;;;;;;;;;;23.29;36.63;97149.70;1850991;76;20252;-74
2021/05/11 07:39:19;;;;;;;;;;;;;;;23.06;36.84;97143.30;1850918;76;20255;-76
2021/05/11 07:41:58;;;;;;;;;;;;;;;23.03;38.03;97137.81;1821914;79;20195;-74
2021/05/11 07:44:37;;;;;;;;;;;;;;;23.36;37.22;97141.66;1822061;79;20218;-74
2021/05/11 08:15:42;;;;;;;;;;;;;;;23.46;38.59;97114.34;1823250;77;20216;-78
2021/05/11 08:18:38;;;;;;;;;;;;;;;23.52;38.41;97110.33;1820076;79;20234;-78
2021/05/11 08:29:53;;;;;;;;;;;;;;;23.44;38.07;97101.11;1851666;76;20207;-76
2021/05/11 08:32:28;;;;;;;;;;;;;;;23.52;37.93;97110.86;1804103;79;20232;-76
2021/05/11 08:35:06;;;;;;;;;;;;;;;23.41;38.18;97098.02;1816668;79;20266;-73
2021/05/11 08:37:45;;;;;;;;;;;;;;;23.44;38.09;97099.77;1816951;79;20593;-74
2021/05/11 08:40:21;;;;;;;;;;;;;;;23.48;38.07;97098.84;1836384;77;20491;-73
2021/05/11 08:43:34;;;;;;;;;;;;;;;23.44;37.70;97102.46;1851568;76;20207;-76
2021/05/11 08:46:13;;;;;;;;;;;;;;;23.48;37.45;97094.80;1851585;76;20203;-77
2021/05/11 08:48:50;;;;;;;;;;;;;;;23.63;36.87;97096.77;1801320;79;20555;-71
2021/05/11 09:00:07;;;;;;;;;;;;;;;23.98;35.49;97091.72;1808736;79;20287;-78
2021/05/11 09:08:16;;;;;;;;;;;;;;;24.04;34.22;97080.10;1836385;77;20471;-80
2021/05/11 09:29:12;;;;;;;;;;;;;;;23.97;34.72;97065.83;1841565;76;20565;-78
2021/05/11 09:31:57;;;;;;;;;;;;;;;23.96;34.66;97070.41;1817310;79;20547;-75
2021/05/11 09:55:17;;;;;;;;;;;;;;;24.06;30.48;97045.73;1819317;79;20249;-74
2021/05/11 09:58:21;;;;;;;;;;;;;;;24.03;27.66;97035.91;1850642;76;20255;-74
2021/05/11 10:36:29;;;;;;;;;;;;;;;24.70;26.71;97011.44;1822124;77;20214;-74
2021/05/11 10:46:58;;;;;;;;;;;;;;;24.66;28.12;96965.22;1823909;77;20261;-75
2021/05/11 10:49:39;;;;;;;;;;;;;;;24.90;28.57;96990.59;1822628;79;20218;-77
2021/05/11 10:55:20;;;;;;;;;;;;;;;25.03;27.56;96998.27;1851789;76;20468;-76
2021/05/11 11:00:44;;;;;;;;;;;;;;;25.18;27.04;96985.31;1851454;76;20211;-80
2021/05/11 11:03:26;;;;;;;;;;;;;;;25.23;27.07;96978.72;1820062;79;20213;-80
2021/05/11 11:06:22;;;;;;;;;;;;;;;25.31;25.62;96983.53;1820069;79;20218;-82
2021/05/11 11:09:02;;;;;;;;;;;;;;;25.40;27.00;96975.50;1820106;79;20248;-77
2021/05/11 11:11:59;;;;;;;;;;;;;;;25.51;26.64;96973.97;1851278;76;20178;-77
2021/05/11 11:14:37;;;;;;;;;;;;;;;25.57;26.65;96969.83;1851469;76;20254;-76
2021/05/11 11:17:16;;;;;;;;;;;;;;;25.64;26.50;96969.77;1848877;76;20219;-74
2021/05/11 11:20:00;;;;;;;;;;;;;;;25.71;26.19;96971.88;1851603;76;20223;-81
2021/05/11 11:25:28;;;;;;;;;;;;;;;25.69;25.07;96966.41;1822535;79;20222;-79
2021/05/11 11:28:04;;;;;;;;;;;;;;;25.71;25.96;96959.73;1819799;79;20223;-80
2021/05/11 11:30:40;;;;;;;;;;;;;;;25.76;25.05;96955.01;1822561;79;20214;-80
2021/05/11 11:33:19;;;;;;;;;;;;;;;25.70;24.74;96953.22;1851437;76;20262;-79
2021/05/11 11:35:55;;;;;;;;;;;;;;;25.73;25.55;96956.29;1851628;76;20457;-77
2021/05/11 11:38:32;;;;;;;;;;;;;;;25.68;25.27;96946.70;1820121;79;20261;-81
2021/05/11 11:41:27;;;;;;;;;;;;;;;25.68;25.86;96954.80;1851588;76;20207;-78
2021/05/11 11:44:25;;;;;;;;;;;;;;;25.78;26.21;96943.47;1851568;76;20461;-81
2021/05/11 11:47:08;;;;;;;;;;;;;;;25.92;26.03;96941.98;1795543;79;20231;-80
2021/05/11 11:49:47;;;;;;;;;;;;;;;26.01;24.97;96939.28;1851708;76;20187;-82
2021/05/11 12:00:29;;;;;;;;;;;;;;;25.89;23.10;96914.92;1819925;79;20249;-83
2021/05/11 12:03:10;;;;;;;;;;;;;;;26.00;22.49;96926.29;1820071;79;20259;-76
2021/05/11 12:06:08;;;;;;;;;;;;;;;25.94;23.75;96920.99;1851525;76;20203;-81
2021/05/11 12:09:03;;;;;;;;;;;;;;;25.94;22.59;96925.86;1820170;79;20277;-78
2021/05/11 12:12:01;;;;;;;;;;;;;;;25.97;22.24;96917.82;1822468;79;20214;-79
2021/05/11 12:14:38;;;;;;;;;;;;;;;25.99;23.07;96914.37;1820144;79;20217;-77
2021/05/11 12:17:13;;;;;;;;;;;;;;;25.93;22.45;96920.69;1802730;79;20236;-74
2021/05/11 12:19:54;;;;;;;;;;;;;;;25.95;22.34;96910.47;1822685;79;20214;-77
2021/05/11 12:22:26;;;;;;;;;;;;;;;25.97;22.60;96915.96;1851311;76;20445;-78
2021/05/11 12:25:02;;;;;;;;;;;;;;;25.88;21.20;96911.38;1820156;79;20492;-80
2021/05/11 12:28:33;;;;;;;;;;;;;;;25.96;20.88;96916.17;1878835;76;20240;-78
2021/05/11 12:31:10;;;;;;;;;;;;;;;25.85;21.59;96905.08;1839537;75;20364;-80
2021/05/11 12:33:45;;;;;;;;;;;;;;;25.89;21.10;96906.83;1854107;76;20271;-81
2021/05/11 12:36:27;;;;;;;;;;;;;;;25.97;22.27;96893.02;1851341;76;20330;-74
2021/05/11 12:42:17;;;;;;;;;;;;;;;26.11;23.07;96894.20;1835180;77;20261;-74
2021/05/11 12:45:06;;;;;;;;;;;;;;;26.07;22.36;96891.65;1836833;76;20281;-76
2021/05/11 12:50:39;;;;;;;;;;;;;;;26.16;23.08;96884.91;1829881;76;20255;-76
2021/05/11 12:53:34;;;;;;;;;;;;;;;26.18;21.85;96880.92;1811872;79;20609;-76
2021/05/11 13:17:16;;;;;;;;;;;;;;;26.42;21.46;96859.38;1847331;76;20227;-75
2021/05/11 13:35:41;;;;;;;;;;;;;;;26.40;20.34;96814.75;1829498;76;20230;-77
2021/05/11 13:38:21;;;;;;;;;;;;;;;26.51;21.72;96827.46;1850792;76;20227;-77
2021/05/11 13:40:56;;;;;;;;;;;;;;;26.54;21.21;96826.17;1819453;79;20221;-76
2021/05/11 13:43:32;;;;;;;;;;;;;;;26.55;20.72;96823.77;1849791;76;20235;-77
2021/05/11 13:46:27;;;;;;;;;;;;;;;26.50;20.54;96828.52;1849752;76;20235;-79
2021/05/11 13:49:23;;;;;;;;;;;;;;;26.47;20.85;96817.65;1909212;74;20278;-80
2021/05/11 13:51:59;;;;;;;;;;;;;;;26.40;20.80;96812.05;1797461;79;20252;-77
2021/05/11 13:54:34;;;;;;;;;;;;;;;26.48;21.49;96813.89;1801429;79;20306;-75
2021/05/11 14:03:03;;;;;;;;;;;;;;;26.54;19.76;96808.61;1819482;79;20471;-77
2021/05/11 14:05:59;;;;;;;;;;;;;;;26.50;19.95;96802.30;1850937;76;20480;-77
2021/05/11 14:08:54;;;;;;;;;;;;;;;26.55;20.70;96796.20;1844933;76;20349;-79
2021/05/11 14:11:49;;;;;;;;;;;;;;;26.58;21.32;96792.23;1850219;76;20231;-76
2021/05/11 14:14:29;;;;;;;;;;;;;;;26.56;21.00;96797.84;1850638;76;20459;-75
2021/05/11 14:17:05;;;;;;;;;;;;;;;26.49;21.08;96788.50;1809355;79;20553;-79
2021/05/11 14:19:41;;;;;;;;;;;;;;;26.47;20.48;96786.58;1842063;76;20227;-75
2021/05/11 14:22:35;;;;;;;;;;;;;;;26.45;20.20;96787.88;1847144;76;20227;-75
2021/05/11 14:25:13;;;;;;;;;;;;;;;26.46;20.30;96782.73;1811237;79;20236;-77
2021/05/11 14:27:51;;;;;;;;;;;;;;;26.46;20.26;96781.38;1810757;79;20185;-79
2021/05/11 14:30:28;;;;;;;;;;;;;;;26.50;21.51;96779.34;1819546;79;20245;-78
2021/05/11 14:33:05;;;;;;;;;;;;;;;26.42;19.96;96778.88;1850924;76;20270;-75
2021/05/11 14:35:44;;;;;;;;;;;;;;;26.43;20.69;96775.12;1835524;77;20475;-78
2021/05/11 14:38:19;;;;;;;;;;;;;;;26.36;19.52;96773.86;1850611;76;20219;-76
2021/05/11 14:41:02;;;;;;;;;;;;;;;26.36;19.90;96771.16;1841949;77;20241;-77
2021/05/11 14:43:35;;;;;;;;;;;;;;;26.37;19.39;96768.77;1812737;79;20469;-75
2021/05/11 14:46:11;;;;;;;;;;;;;;;26.39;20.26;96761.77;1804465;79;20242;-75
2021/05/11 14:48:47;;;;;;;;;;;;;;;26.41;19.90;96761.82;1842498;77;20257;-77
2021/05/11 14:51:23;;;;;;;;;;;;;;;26.35;17.58;96764.11;1821991;79;20281;-78
2021/05/11 14:53:58;;;;;;;;;;;;;;;26.33;18.51;96760.30;1850846;76;20247;-75
2021/05/11 14:56:39;;;;;;;;;;;;;;;26.37;20.05;96757.95;1821957;79;20254;-77
2021/05/11 14:59:14;;;;;;;;;;;;;;;26.40;19.95;96758.85;1846840;76;20302;-75
2021/05/11 15:01:49;;;;;;;;;;;;;;;26.38;19.71;96749.31;1818483;79;20245;-79
2021/05/11 15:04:25;;;;;;;;;;;;;;;26.37;20.83;96751.20;1792319;79;20482;-76
2021/05/11 15:07:00;;;;;;;;;;;;;;;26.35;21.36;96743.85;1813069;79;20240;-72
2021/05/11 15:09:36;;;;;;;;;;;;;;;26.31;21.97;96739.98;1813319;79;20490;-75
2021/05/11 15:12:12;;;;;;;;;;;;;;;26.26;22.50;96738.50;1819680;79;20946;-76
2021/05/11 15:14:48;;;;;;;;;;;;;;;26.27;22.57;96730.69;1838876;77;20471;-75
2021/05/11 15:20:04;;;;;;;;;;;;;;;26.19;22.59;96728.63;1806325;79;20248;-75
2021/05/11 15:22:42;;;;;;;;;;;;;;;26.18;22.69;96728.84;1829800;76;20128;-87
2021/05/11 15:25:20;;;;;;;;;;;;;;;26.18;22.79;96723.44;1837735;77;20248;-78
2021/05/11 15:27:57;;;;;;;;;;;;;;;26.19;22.18;96721.04;1800430;79;20249;-78
2021/05/11 15:30:34;;;;;;;;;;;;;;;26.16;22.15;96723.69;1813539;79;20232;-78
2021/05/11 15:33:29;;;;;;;;;;;;;;;26.15;22.71;96722.03;1906121;74;20520;-75
2021/05/11 15:36:44;;;;;;;;;;;;;;;26.09;22.66;96714.88;1866529;76;20242;-75
2021/05/11 15:39:20;;;;;;;;;;;;;;;26.03;22.74;96713.08;1819239;77;20222;-78
2021/05/11 15:42:15;;;;;;;;;;;;;;;26.00;23.18;96712.99;1918699;74;20330;-75
2021/05/11 15:44:51;;;;;;;;;;;;;;;25.98;23.44;96707.53;1851204;76;20270;-77
2021/05/11 15:47:28;;;;;;;;;;;;;;;25.86;22.30;96709.67;1816696;79;20225;-76
2021/05/11 15:50:25;;;;;;;;;;;;;;;25.81;23.60;96697.41;1814391;79;20222;-76
2021/05/11 15:53:07;;;;;;;;;;;;;;;25.73;23.67;96695.84;1829800;76;20221;-75
2021/05/11 15:55:44;;;;;;;;;;;;;;;25.69;23.97;96696.03;1807427;79;20267;-74
2021/05/11 15:58:20;;;;;;;;;;;;;;;25.65;24.19;96695.37;1850936;76;20228;-73
2021/05/11 16:00:59;;;;;;;;;;;;;;;25.60;24.54;96697.41;1812940;79;20241;-77
2021/05/11 16:03:35;;;;;;;;;;;;;;;25.52;23.89;96695.84;1849115;75;20227;-76
2021/05/11 16:06:12;;;;;;;;;;;;;;;25.47;24.32;96695.72;1796979;79;20238;-74
2021/05/11 16:08:49;;;;;;;;;;;;;;;25.45;24.55;96694.28;1812518;79;20269;-75
2021/05/11 16:11:25;;;;;;;;;;;;;;;25.40;24.55;96693.61;1813367;79;20284;-77
2021/05/11 16:14:22;;;;;;;;;;;;;;;25.33;24.22;96692.34;1893740;74;20235;-76
2021/05/11 16:16:57;;;;;;;;;;;;;;;25.30;24.49;96689.25;1849865;76;20222;-74
2021/05/11 16:19:33;;;;;;;;;;;;;;;25.28;24.47;96690.84;1815641;79;20363;-76
2021/05/11 16:22:09;;;;;;;;;;;;;;;25.25;24.59;96688.08;1789852;79;20252;-75
2021/05/11 16:24:45;;;;;;;;;;;;;;;25.22;24.48;96685.82;1819995;79;20260;-77
2021/05/11 16:27:21;;;;;;;;;;;;;;;25.15;24.73;96682.94;1843576;76;20477;-76
2021/05/11 16:30:20;;;;;;;;;;;;;;;25.09;24.50;96685.47;1844526;77;20261;-77
2021/05/11 16:32:56;;;;;;;;;;;;;;;25.03;24.54;96686.38;1834083;77;20527;-76
2021/05/11 16:35:31;;;;;;;;;;;;;;;24.99;24.92;96689.22;1850200;76;20294;-75
2021/05/11 16:38:07;;;;;;;;;;;;;;;24.92;24.60;96687.94;1824828;77;20271;-77
2021/05/11 16:40:48;;;;;;;;;;;;;;;24.87;25.06;96691.03;1839668;76;20204;-77
2021/05/11 16:43:23;;;;;;;;;;;;;;;24.80;25.31;96681.67;1892620;74;20264;-74
2021/05/11 16:46:19;;;;;;;;;;;;;;;24.74;25.20;96677.16;1819094;77;20571;-76
2021/05/11 16:48:54;;;;;;;;;;;;;;;24.68;25.16;96680.76;1814644;79;20234;-77
2021/05/11 16:51:30;;;;;;;;;;;;;;;24.63;25.63;96677.36;1850915;76;20207;-76
2021/05/11 16:54:09;;;;;;;;;;;;;;;24.55;25.66;96670.91;1819362;79;20300;-77
2021/05/11 16:56:46;;;;;;;;;;;;;;;24.50;25.98;96669.42;1821899;79;20272;-78
2021/05/11 16:59:21;;;;;;;;;;;;;;;24.42;26.03;96671.34;1830475;77;20465;-77
2021/05/11 17:01:57;;;;;;;;;;;;;;;24.36;26.50;96670.89;1810120;79;20252;-77
2021/05/11 17:04:33;;;;;;;;;;;;;;;24.29;26.69;96669.59;1812671;79;20233;-76
2021/05/11 17:07:09;;;;;;;;;;;;;;;24.20;26.84;96672.27;1841851;77;20473;-77
2021/05/11 17:09:44;;;;;;;;;;;;;;;24.13;27.01;96675.55;1840458;77;20221;-77
2021/05/11 17:12:20;;;;;;;;;;;;;;;24.06;27.69;96670.75;1818072;77;20218;-76
2021/05/11 17:14:58;;;;;;;;;;;;;;;23.97;27.58;96669.68;1850517;76;20208;-78
2021/05/11 17:17:34;;;;;;;;;;;;;;;23.87;27.74;96665.27;1810151;79;20232;-76
2021/05/11 17:20:10;;;;;;;;;;;;;;;23.79;27.67;96666.35;1824261;77;20537;-76
2021/05/11 17:23:04;;;;;;;;;;;;;;;23.67;28.26;96662.20;1790431;77;20217;-77
2021/05/11 17:26:00;;;;;;;;;;;;;;;23.54;28.43;96655.55;1803575;79;20307;-76
2021/05/11 17:28:39;;;;;;;;;;;;;;;23.41;29.23;96661.03;1850525;76;20270;-76
2021/05/11 17:31:32;;;;;;;;;;;;;;;23.24;30.33;96657.50;1817607;79;20279;-76
2021/05/11 17:34:27;;;;;;;;;;;;;;;23.07;29.69;96661.97;1819284;79;20245;-75
2021/05/11 17:37:03;;;;;;;;;;;;;;;22.95;29.45;96665.05;1850499;76;20480;-76
2021/05/11 17:39:39;;;;;;;;;;;;;;;22.80;30.67;96655.89;1850716;76;20207;-74
2021/05/11 17:43:02;;;;;;;;;;;;;;;22.59;30.13;96657.00;1534173;88;20263;-76
2021/05/11 17:45:39;;;;;;;;;;;;;;;22.39;31.39;96651.12;1502642;91;20263;-76
2021/05/11 17:48:23;;;;;;;;;;;;;;;22.24;31.53;96653.19;1513451;91;20253;-77
2021/05/11 17:51:07;;;;;;;;;;;;;;;22.05;31.38;96649.50;1493459;92;20229;-73
2021/05/11 17:53:44;;;;;;;;;;;;;;;21.89;31.28;96648.89;1522832;89;20234;-75
2021/05/11 17:56:28;;;;;;;;;;;;;;;21.74;33.28;96650.93;1533595;88;20274;-76
2021/05/11 17:59:03;;;;;;;;;;;;;;;21.59;30.91;96648.44;1506709;91;20217;-74
2021/05/11 18:01:41;;;;;;;;;;;;;;;21.41;32.86;96645.80;1522516;88;20304;-78
2021/05/11 18:04:17;;;;;;;;;;;;;;;21.27;33.19;96647.63;1533583;88;20286;-75
2021/05/11 18:06:55;;;;;;;;;;;;;;;21.13;32.84;96652.64;1536034;88;20247;-77
2021/05/11 18:09:33;;;;;;;;;;;;;;;21.00;32.33;96651.56;1536131;88;20251;-77
2021/05/11 18:12:09;;;;;;;;;;;;;;;20.84;34.02;96650.05;1514389;91;20211;-76
2021/05/11 18:14:44;;;;;;;;;;;;;;;20.71;33.48;96649.97;1515952;91;20206;-76
2021/05/11 18:17:22;;;;;;;;;;;;;;;20.56;35.43;96644.22;1535724;88;20235;-74
2021/05/11 18:20:01;;;;;;;;;;;;;;;20.46;34.51;96649.13;1528923;89;20253;-76
2021/05/11 18:22:38;;;;;;;;;;;;;;;20.34;33.46;96652.03;1515662;91;20472;-78
2021/05/11 18:25:16;;;;;;;;;;;;;;;20.20;36.57;96653.27;1536173;88;20247;-76
2021/05/11 18:27:51;;;;;;;;;;;;;;;20.09;34.87;96647.14;1513592;89;20282;-74
2021/05/11 18:30:28;;;;;;;;;;;;;;;19.99;36.62;96646.65;1514412;91;20242;-75
2021/05/11 18:33:13;;;;;;;;;;;;;;;19.83;35.79;96648.53;1481907;92;20176;-76
2021/05/11 18:35:49;;;;;;;;;;;;;;;19.74;36.47;96645.67;1520105;89;20206;-75
2021/05/11 18:38:31;;;;;;;;;;;;;;;19.61;35.51;96644.56;1515004;89;20316;-77
2021/05/11 18:41:57;;;;;;;;;;;;;;;19.47;38.32;96640.94;1811563;79;20233;-77
2021/05/11 18:44:23;;;;;;;;;;;;;;;19.33;36.18;96639.97;1786307;80;20459;-76
2021/05/11 18:46:52;;;;;;;;;;;;;;;19.27;36.34;96639.90;1764049;79;20592;-75